Greenfield Park, Canada
Current Conditions -  °F | °C
As of 4:00 AM on Friday 31 Oct 2014 (Local Time) from CYHU Reporting Station
Overcast Overcast  
Wind Chill: 32°   Ceiling: 4700
Heat Index: 36°   Visibility: 9mi
Dew Point: 30°   Wind: 5mph
Humidity: 81%   Direction: 20°NNE
Pressure: 30.02"   Gusts: NA
Location:  45.5°N, 73.48°W
Report Text: CYHU 310800Z AUTO 02004KT 9SM OVC047 02/M01 A3002 RMK SLP168
Loading
Personal Weather Stations






























Interactive Weather Map
Tropical Storm Tracking
New forecast layout! Learn more

10-Day Weather Forecast

Advertisements
Track Severe Weather on mobile